createdAt,value
2023-06-06T00:01:19.281Z,43.10
2023-06-06T00:04:06.037Z,43.29
2023-06-06T00:06:54.125Z,42.87
2023-06-06T00:09:40.834Z,43.35
2023-06-06T00:12:29.765Z,43.24
2023-06-06T00:15:16.916Z,42.91
2023-06-06T00:18:03.724Z,43.06
2023-06-06T00:20:52.782Z,42.97
2023-06-06T00:23:39.517Z,43.84
2023-06-06T00:26:27.312Z,43.55
2023-06-06T00:29:14.385Z,43.07
2023-06-06T00:32:02.158Z,42.81
2023-06-06T00:34:48.874Z,42.65
2023-06-06T00:37:35.404Z,42.50
2023-06-06T00:40:22.317Z,42.66
2023-06-06T00:43:09.131Z,42.58
2023-06-06T00:45:56.700Z,42.53
2023-06-06T00:48:44.026Z,42.88
2023-06-06T00:51:30.875Z,42.99
2023-06-06T00:54:19.349Z,43.03
2023-06-06T00:57:08.540Z,43.27
2023-06-06T00:59:56.058Z,42.97
2023-06-06T01:02:45.070Z,43.10
2023-06-06T01:05:32.549Z,43.22
2023-06-06T01:08:18.775Z,43.25
2023-06-06T01:11:14.060Z,43.43
2023-06-06T01:14:24.264Z,43.40
2023-06-06T01:17:12.097Z,44.17
2023-06-06T01:20:00.909Z,44.86
2023-06-06T01:22:48.428Z,45.17
2023-06-06T01:25:36.892Z,45.18
2023-06-06T01:28:24.613Z,45.20
2023-06-06T01:31:13.106Z,45.25
2023-06-06T01:34:08.416Z,45.23
2023-06-06T01:37:01.792Z,45.37
2023-06-06T01:39:49.813Z,45.36
2023-06-06T01:42:41.929Z,45.35
2023-06-06T01:45:30.889Z,45.10
2023-06-06T01:48:18.844Z,45.14
2023-06-06T01:51:06.620Z,45.09
2023-06-06T01:53:54.935Z,45.25
2023-06-06T01:56:42.674Z,45.39
2023-06-06T01:59:30.092Z,46.02
2023-06-06T02:02:18.445Z,46.45
2023-06-06T02:05:05.283Z,46.58
2023-06-06T02:07:52.912Z,46.75
2023-06-06T02:10:40.350Z,47.28
2023-06-06T02:13:27.524Z,50.06
2023-06-06T02:16:14.507Z,50.87
2023-06-06T02:19:01.005Z,52.49
2023-06-06T02:21:48.773Z,54.12
2023-06-06T02:24:35.880Z,55.42
2023-06-06T02:27:22.541Z,55.50
2023-06-06T02:30:10.175Z,56.09
2023-06-06T02:32:57.755Z,56.99
2023-06-06T02:35:47.754Z,57.92
2023-06-06T02:38:34.264Z,58.83
2023-06-06T02:41:20.578Z,59.12
2023-06-06T02:44:07.306Z,58.81
2023-06-06T02:46:56.574Z,59.33
2023-06-06T02:49:43.207Z,57.89
2023-06-06T02:52:29.896Z,57.95
2023-06-06T02:55:16.426Z,57.65
2023-06-06T02:58:02.889Z,58.42
2023-06-06T03:00:49.413Z,59.08
2023-06-06T03:03:36.107Z,59.72
2023-06-06T03:06:23.096Z,59.23
2023-06-06T03:09:10.931Z,59.85
2023-06-06T03:11:58.839Z,60.40
2023-06-06T03:14:56.799Z,59.47
2023-06-06T03:17:45.193Z,58.07
2023-06-06T03:20:32.021Z,57.56
2023-06-06T03:23:26.979Z,57.41
2023-06-06T03:26:14.274Z,56.93
2023-06-06T03:29:01.444Z,57.97
2023-06-06T03:31:51.579Z,58.13
2023-06-06T03:34:40.723Z,58.10
2023-06-06T03:37:27.512Z,59.14
2023-06-06T03:40:14.208Z,60.04
2023-06-06T03:43:01.276Z,60.55
2023-06-06T03:45:48.231Z,60.83
2023-06-06T03:48:34.841Z,60.50
2023-06-06T03:51:21.428Z,60.14
2023-06-06T03:54:08.095Z,60.83
2023-06-06T03:56:55.478Z,61.29
2023-06-06T03:59:42.184Z,60.99
2023-06-06T04:02:33.251Z,61.16
2023-06-06T04:05:20.182Z,61.28
2023-06-06T04:08:09.120Z,61.31
2023-06-06T04:10:55.569Z,61.62
2023-06-06T04:13:42.776Z,62.13
2023-06-06T04:16:29.541Z,62.58
2023-06-06T04:19:16.708Z,63.08
2023-06-06T04:22:06.296Z,63.65
2023-06-06T04:24:53.946Z,64.31
2023-06-06T04:27:42.045Z,64.91
2023-06-06T04:30:30.490Z,65.53
2023-06-06T04:33:18.315Z,66.16
2023-06-06T04:36:07.321Z,66.61
2023-06-06T04:38:54.401Z,66.76
2023-06-06T04:44:32.758Z,66.61
2023-06-06T04:47:20.896Z,65.92
2023-06-06T04:50:09.234Z,65.87
2023-06-06T04:52:56.151Z,65.28
2023-06-06T04:55:42.749Z,65.06
2023-06-06T04:58:29.752Z,64.43
2023-06-06T05:01:17.262Z,64.87
2023-06-06T05:04:04.855Z,64.01
2023-06-06T05:06:51.989Z,64.08
2023-06-06T05:09:38.522Z,64.30
2023-06-06T05:12:25.988Z,64.33
2023-06-06T05:15:12.546Z,64.52
2023-06-06T05:17:59.528Z,64.77
2023-06-06T05:20:46.633Z,64.70
2023-06-06T05:23:33.368Z,64.61
2023-06-06T05:26:19.748Z,63.69
2023-06-06T05:29:06.393Z,63.12
2023-06-06T05:31:52.876Z,63.14
2023-06-06T05:34:39.964Z,62.92
2023-06-06T05:37:27.179Z,62.62
2023-06-06T05:40:14.299Z,62.41
2023-06-06T05:43:00.951Z,62.25
2023-06-06T05:45:47.296Z,61.24
2023-06-06T05:48:33.648Z,61.13
2023-06-06T05:51:20.951Z,61.29
2023-06-06T05:54:16.080Z,61.18
2023-06-06T05:57:04.577Z,61.20
2023-06-06T05:59:51.165Z,60.91
2023-06-06T06:02:38.193Z,60.44
2023-06-06T06:05:31.452Z,59.46
2023-06-06T06:08:19.027Z,59.15
2023-06-06T06:11:07.574Z,58.42
2023-06-06T06:13:54.267Z,58.44
2023-06-06T06:16:40.725Z,58.15
2023-06-06T06:19:27.226Z,57.60
2023-06-06T06:22:15.161Z,57.47
2023-06-06T06:25:01.717Z,57.36
2023-06-06T06:27:48.829Z,56.91
2023-06-06T06:30:35.285Z,55.57
2023-06-06T06:33:23.653Z,55.38
2023-06-06T06:36:10.280Z,54.77
2023-06-06T06:38:56.946Z,54.69
2023-06-06T06:41:43.742Z,54.54
2023-06-06T06:44:30.464Z,53.65
2023-06-06T06:47:20.558Z,53.67
2023-06-06T06:50:08.155Z,52.58
2023-06-06T06:52:57.548Z,51.88
2023-06-06T06:55:45.539Z,51.44
2023-06-06T06:58:35.501Z,51.22
2023-06-06T07:01:28.396Z,50.69
2023-06-06T07:04:15.975Z,49.85
2023-06-06T07:07:02.513Z,49.85
2023-06-06T07:09:49.026Z,49.99
2023-06-06T07:12:36.174Z,50.00
2023-06-06T07:15:22.744Z,49.46
2023-06-06T07:18:10.641Z,48.99
2023-06-06T07:20:57.027Z,48.84
2023-06-06T07:23:43.438Z,48.12
2023-06-06T07:26:30.314Z,47.57
2023-06-06T07:29:16.976Z,47.32
2023-06-06T07:32:03.639Z,47.18
2023-06-06T07:34:50.552Z,47.12
2023-06-06T07:37:40.090Z,46.63
2023-06-06T07:40:26.948Z,46.94
2023-06-06T07:43:13.714Z,46.48
2023-06-06T07:46:00.279Z,46.63
2023-06-06T07:48:46.739Z,45.65
2023-06-06T07:51:33.470Z,45.18
2023-06-06T07:54:20.488Z,45.89
2023-06-06T07:57:09.699Z,45.89
2023-06-06T07:59:56.281Z,45.77
2023-06-06T08:02:43.464Z,45.35
2023-06-06T08:05:30.302Z,45.30
2023-06-06T08:08:17.122Z,45.42
2023-06-06T08:11:03.724Z,45.50
2023-06-06T08:13:50.363Z,45.54
2023-06-06T08:16:36.961Z,45.28
2023-06-06T08:19:24.563Z,44.63
2023-06-06T08:22:10.977Z,44.77
2023-06-06T08:24:57.821Z,44.58
2023-06-06T08:27:44.771Z,44.64
2023-06-06T08:30:31.654Z,44.51
2023-06-06T08:33:21.429Z,44.41
2023-06-06T08:36:09.013Z,43.65
2023-06-06T08:38:56.836Z,43.73
2023-06-06T08:41:53.785Z,43.68
2023-06-06T08:44:43.141Z,42.86
2023-06-06T08:47:31.216Z,43.08
2023-06-06T08:50:18.020Z,43.48
2023-06-06T08:53:05.877Z,43.53
2023-06-06T08:55:56.695Z,43.06
2023-06-06T08:58:45.209Z,43.36
2023-06-06T09:01:32.130Z,43.27
2023-06-06T09:04:19.466Z,43.45
2023-06-06T09:07:14.192Z,43.48
2023-06-06T09:10:01.117Z,42.65
2023-06-06T09:12:48.368Z,42.77
2023-06-06T09:15:35.270Z,42.62
2023-06-06T09:18:23.053Z,42.56
2023-06-06T09:21:10.027Z,42.33
2023-06-06T09:23:56.376Z,43.11
2023-06-06T09:26:43.067Z,42.48
2023-06-06T09:29:39.301Z,42.42
2023-06-06T09:32:34.281Z,42.31
2023-06-06T09:35:21.480Z,42.27
2023-06-06T09:38:16.215Z,42.39
2023-06-06T09:41:02.855Z,42.87
2023-06-06T09:43:49.657Z,42.66
2023-06-06T09:46:38.999Z,41.77
2023-06-06T09:49:25.556Z,41.81
2023-06-06T09:52:14.495Z,42.32
2023-06-06T09:55:01.559Z,42.84
2023-06-06T09:57:48.797Z,42.56
2023-06-06T10:00:39.097Z,42.73
2023-06-06T10:03:26.285Z,42.81
2023-06-06T10:06:13.164Z,42.71
2023-06-06T10:08:59.885Z,43.34
2023-06-06T10:11:47.021Z,42.82
2023-06-06T10:14:33.975Z,41.53
2023-06-06T10:17:21.325Z,40.57
2023-06-06T10:20:10.686Z,40.39
2023-06-06T10:23:00.306Z,41.09
2023-06-06T10:25:47.639Z,41.18
2023-06-06T10:28:36.892Z,41.53
2023-06-06T10:31:34.604Z,41.86
2023-06-06T10:34:24.510Z,42.01
2023-06-06T10:37:23.171Z,41.79
2023-06-06T10:40:11.157Z,42.33
2023-06-06T10:42:58.005Z,41.62
2023-06-06T10:45:46.369Z,41.22
2023-06-06T10:48:43.680Z,41.26
2023-06-06T10:51:40.699Z,41.33
2023-06-06T10:54:35.139Z,40.83
2023-06-06T10:57:22.009Z,41.23
2023-06-06T11:00:11.237Z,42.13
2023-06-06T11:02:59.922Z,42.48
2023-06-06T11:06:02.458Z,42.51
2023-06-06T11:08:58.774Z,41.56
2023-06-06T11:11:47.275Z,40.26
2023-06-06T11:14:57.565Z,39.88
2023-06-06T11:17:49.522Z,38.81
2023-06-06T11:20:43.036Z,38.77
2023-06-06T11:23:41.267Z,38.87
2023-06-06T11:26:30.818Z,38.92
2023-06-06T11:29:19.906Z,38.65
2023-06-06T11:32:11.024Z,38.72
2023-06-06T11:34:58.873Z,38.46
2023-06-06T11:37:45.558Z,38.62
2023-06-06T11:40:32.459Z,38.59
2023-06-06T11:43:19.082Z,38.95
2023-06-06T11:46:07.468Z,38.80
2023-06-06T11:49:01.693Z,38.98
2023-06-06T11:52:01.851Z,39.44
2023-06-06T11:54:57.866Z,39.90
2023-06-06T11:57:44.818Z,40.26
2023-06-06T12:00:32.318Z,40.11
2023-06-06T12:03:18.956Z,40.50
2023-06-06T12:06:07.151Z,40.92
2023-06-06T12:08:54.044Z,41.37
2023-06-06T12:11:50.522Z,42.09
2023-06-06T12:14:37.427Z,42.04
2023-06-06T12:17:26.362Z,42.07
2023-06-06T12:20:13.216Z,42.54
2023-06-06T12:22:59.473Z,43.23
2023-06-06T12:25:54.981Z,43.52
2023-06-06T12:28:59.239Z,43.97
2023-06-06T12:31:47.214Z,44.17
2023-06-06T12:35:03.203Z,44.43
2023-06-06T12:37:50.342Z,43.78
2023-06-06T12:40:37.798Z,43.31
2023-06-06T12:43:24.114Z,43.51
2023-06-06T12:46:10.972Z,43.63
2023-06-06T12:48:57.351Z,43.57
2023-06-06T12:51:44.239Z,43.77
2023-06-06T12:54:31.121Z,43.32
2023-06-06T12:57:17.758Z,43.36
2023-06-06T13:00:09.358Z,43.69
2023-06-06T13:02:55.856Z,43.66
2023-06-06T13:05:42.495Z,43.01
2023-06-06T13:08:38.752Z,43.16
2023-06-06T13:11:27.886Z,43.04
2023-06-06T13:14:15.157Z,42.38
2023-06-06T13:17:12.699Z,42.32
2023-06-06T13:20:00.368Z,42.04
2023-06-06T13:22:47.075Z,41.89
2023-06-06T13:25:33.484Z,41.88
2023-06-06T13:28:20.066Z,41.26
2023-06-06T13:31:06.908Z,41.24
2023-06-06T13:33:53.640Z,41.42
2023-06-06T13:36:40.475Z,41.93
2023-06-06T13:39:30.083Z,41.70
2023-06-06T13:42:16.774Z,42.18
2023-06-06T13:45:03.785Z,42.43
2023-06-06T13:47:50.639Z,42.61
2023-06-06T13:50:37.936Z,42.38
2023-06-06T13:53:24.518Z,42.73
2023-06-06T13:56:11.624Z,42.13
2023-06-06T13:58:58.138Z,41.92
2023-06-06T14:01:48.430Z,42.66
2023-06-06T14:04:36.982Z,42.81
2023-06-06T14:07:24.997Z,43.09
2023-06-06T14:10:11.974Z,43.36
2023-06-06T14:12:59.238Z,43.12
2023-06-06T14:15:45.881Z,43.41
2023-06-06T14:18:32.556Z,43.42
2023-06-06T14:21:18.973Z,43.42
2023-06-06T14:24:08.817Z,43.87
2023-06-06T14:26:56.000Z,44.47
2023-06-06T14:29:42.757Z,45.28
2023-06-06T14:32:32.080Z,45.39
2023-06-06T14:35:19.192Z,45.31
2023-06-06T14:38:06.035Z,44.93
2023-06-06T14:40:54.821Z,45.03
2023-06-06T14:43:41.762Z,45.26
2023-06-06T14:46:32.046Z,44.92
2023-06-06T14:49:18.394Z,44.81
2023-06-06T14:52:07.964Z,44.81
2023-06-06T14:54:54.989Z,44.95
2023-06-06T14:57:41.887Z,44.83
2023-06-06T15:00:28.729Z,44.44
2023-06-06T15:03:16.118Z,43.20
2023-06-06T15:06:04.487Z,43.03
2023-06-06T15:08:51.182Z,42.84
2023-06-06T15:11:37.675Z,42.78
2023-06-06T15:14:27.047Z,42.73
2023-06-06T15:17:13.525Z,43.37
2023-06-06T15:20:00.806Z,43.26
2023-06-06T15:22:47.493Z,43.70
2023-06-06T15:25:33.972Z,43.82
2023-06-06T15:28:27.101Z,43.87
2023-06-06T15:31:13.570Z,44.09
2023-06-06T15:34:03.219Z,44.61
2023-06-06T15:36:49.596Z,44.85
2023-06-06T15:39:40.743Z,45.19
2023-06-06T15:42:27.608Z,45.17
2023-06-06T15:45:15.811Z,45.17
2023-06-06T15:48:03.694Z,45.62
2023-06-06T15:50:50.180Z,45.90
2023-06-06T15:53:36.753Z,46.01
2023-06-06T15:56:23.324Z,45.89
2023-06-06T15:59:12.380Z,45.88
2023-06-06T16:01:58.715Z,45.68
2023-06-06T16:04:45.573Z,45.60
2023-06-06T16:07:31.850Z,45.12
2023-06-06T16:10:18.329Z,44.53
2023-06-06T16:13:06.046Z,44.29
2023-06-06T16:15:53.172Z,44.13
2023-06-06T16:18:41.017Z,44.25
2023-06-06T16:21:28.084Z,44.37
2023-06-06T16:24:20.854Z,44.46
2023-06-06T16:27:07.638Z,44.60
2023-06-06T16:29:54.329Z,45.21
2023-06-06T16:32:41.931Z,45.77
2023-06-06T16:35:28.613Z,45.40
2023-06-06T16:38:15.161Z,45.51
2023-06-06T16:41:03.185Z,45.95
2023-06-06T16:43:50.778Z,46.19
2023-06-06T16:46:37.593Z,46.37
2023-06-06T16:49:24.475Z,46.35
2023-06-06T16:52:12.121Z,46.19
2023-06-06T16:54:58.850Z,46.37
2023-06-06T16:57:45.462Z,46.00
2023-06-06T17:00:32.225Z,46.23
2023-06-06T17:03:19.674Z,46.28
2023-06-06T17:06:07.727Z,46.49
2023-06-06T17:08:54.271Z,46.32
2023-06-06T17:11:40.885Z,46.44
2023-06-06T17:14:28.648Z,46.74
2023-06-06T17:17:17.893Z,46.82
2023-06-06T17:20:05.139Z,46.95
2023-06-06T17:22:51.727Z,46.90
2023-06-06T17:25:49.928Z,47.10
2023-06-06T17:28:40.773Z,47.60
2023-06-06T17:31:30.221Z,47.61
2023-06-06T17:34:16.957Z,47.48
2023-06-06T17:37:03.490Z,48.01
2023-06-06T17:39:53.676Z,48.02
2023-06-06T17:42:40.204Z,48.12
2023-06-06T17:45:27.594Z,48.20
2023-06-06T17:48:14.505Z,47.97
2023-06-06T17:51:02.805Z,48.18
2023-06-06T17:53:52.533Z,48.14
2023-06-06T17:56:39.379Z,48.30
2023-06-06T17:59:25.726Z,48.38
2023-06-06T18:02:12.567Z,48.10
2023-06-06T18:05:05.037Z,47.99
2023-06-06T18:07:56.586Z,47.97
2023-06-06T18:10:44.459Z,48.19
2023-06-06T18:13:33.948Z,48.33
2023-06-06T18:16:20.831Z,48.67
2023-06-06T18:19:09.721Z,48.97
2023-06-06T18:21:57.198Z,49.15
2023-06-06T18:24:43.880Z,49.52
2023-06-06T18:27:31.403Z,49.66
2023-06-06T18:30:25.978Z,49.92
2023-06-06T18:33:14.368Z,50.14
2023-06-06T18:36:02.659Z,50.29
2023-06-06T18:38:49.080Z,50.51
2023-06-06T18:41:39.368Z,50.71
2023-06-06T18:44:26.254Z,50.82
2023-06-06T18:47:13.706Z,51.00
2023-06-06T18:50:16.101Z,51.08
2023-06-06T18:53:03.184Z,51.56
2023-06-06T18:55:54.672Z,51.69
2023-06-06T18:58:43.695Z,51.78
2023-06-06T19:01:31.854Z,51.92
2023-06-06T19:04:19.968Z,52.05
2023-06-06T19:07:08.544Z,52.39
2023-06-06T19:09:55.907Z,52.42
2023-06-06T19:12:49.088Z,52.68
2023-06-06T19:15:36.122Z,52.72
2023-06-06T19:18:32.060Z,53.02
2023-06-06T19:21:22.468Z,53.06
2023-06-06T19:24:09.854Z,53.24
2023-06-06T19:26:58.200Z,53.32
2023-06-06T19:29:46.612Z,53.38
2023-06-06T19:32:35.146Z,53.63
2023-06-06T19:35:22.380Z,53.69
2023-06-06T19:38:13.725Z,53.55
2023-06-06T19:41:00.941Z,53.76
2023-06-06T19:43:48.681Z,53.88
2023-06-06T19:46:36.234Z,53.96
2023-06-06T19:49:23.325Z,54.09
2023-06-06T19:52:13.706Z,54.12
2023-06-06T19:55:01.566Z,54.41
2023-06-06T19:57:53.031Z,54.44
2023-06-06T20:00:40.550Z,54.60
2023-06-06T20:03:28.134Z,54.73
2023-06-06T20:06:16.885Z,54.83
2023-06-06T20:09:05.027Z,54.93
2023-06-06T20:11:59.478Z,54.96
2023-06-06T20:14:47.384Z,55.34
2023-06-06T20:17:38.774Z,55.49
2023-06-06T20:20:25.679Z,55.71
2023-06-06T20:23:13.344Z,55.96
2023-06-06T20:26:05.468Z,56.42
2023-06-06T20:28:52.041Z,56.80
2023-06-06T20:31:39.050Z,57.07
2023-06-06T20:34:25.991Z,57.21
2023-06-06T20:37:13.240Z,57.44
2023-06-06T20:40:18.193Z,57.71
2023-06-06T20:43:05.279Z,58.00
2023-06-06T20:45:53.425Z,58.29
2023-06-06T20:48:40.375Z,58.59
2023-06-06T20:51:28.249Z,58.80
2023-06-06T20:54:14.924Z,59.00
2023-06-06T20:57:02.452Z,59.11
2023-06-06T20:59:52.522Z,59.20
2023-06-06T21:02:39.889Z,59.47
2023-06-06T21:05:27.217Z,59.56
2023-06-06T21:08:14.077Z,59.63
2023-06-06T21:11:01.472Z,59.68
2023-06-06T21:13:48.536Z,59.76
2023-06-06T21:16:38.330Z,59.75
2023-06-06T21:19:29.541Z,60.02
2023-06-06T21:22:19.696Z,60.27
2023-06-06T21:25:06.938Z,60.48
2023-06-06T21:27:54.369Z,60.68
2023-06-06T21:30:40.993Z,60.81
2023-06-06T21:33:27.915Z,61.09
2023-06-06T21:36:16.691Z,61.20
2023-06-06T21:39:03.270Z,61.38
2023-06-06T21:41:49.841Z,61.53
2023-06-06T21:44:36.060Z,61.61
2023-06-06T21:47:22.631Z,61.81
2023-06-06T21:50:10.944Z,61.78
2023-06-06T21:52:57.499Z,62.08
2023-06-06T21:55:43.949Z,62.33
2023-06-06T21:58:31.263Z,62.55
2023-06-06T22:01:17.674Z,62.80
2023-06-06T22:04:04.504Z,62.69
2023-06-06T22:06:51.227Z,62.98
2023-06-06T22:09:37.814Z,63.09
2023-06-06T22:12:24.063Z,63.31
2023-06-06T22:15:10.887Z,63.61
2023-06-06T22:17:57.429Z,63.64
2023-06-06T22:20:45.902Z,63.90
2023-06-06T22:23:35.099Z,64.10
2023-06-06T22:26:22.506Z,64.26
2023-06-06T22:29:09.240Z,64.47
2023-06-06T22:31:56.178Z,64.66
2023-06-06T22:34:42.814Z,64.81
2023-06-06T22:37:29.732Z,65.00
2023-06-06T22:40:16.401Z,65.17
2023-06-06T22:43:03.141Z,65.21
2023-06-06T22:45:49.744Z,65.37
2023-06-06T22:48:37.165Z,65.64
2023-06-06T22:51:23.731Z,65.89
2023-06-06T22:54:10.365Z,65.81
2023-06-06T22:56:57.392Z,65.76
2023-06-06T22:59:44.350Z,66.09
2023-06-06T23:02:30.837Z,66.15
2023-06-06T23:05:17.120Z,66.33
2023-06-06T23:08:03.486Z,66.43
2023-06-06T23:10:50.589Z,66.43
2023-06-06T23:13:38.442Z,66.50
2023-06-06T23:16:25.128Z,66.69
2023-06-06T23:19:11.992Z,66.86
2023-06-06T23:21:59.582Z,67.06
2023-06-06T23:24:47.531Z,67.37
2023-06-06T23:27:33.890Z,67.61
2023-06-06T23:30:20.701Z,67.84
2023-06-06T23:33:07.416Z,68.11
2023-06-06T23:35:55.862Z,68.30
2023-06-06T23:38:42.519Z,68.68
2023-06-06T23:41:29.362Z,68.99
2023-06-06T23:44:16.127Z,69.30
2023-06-06T23:47:02.921Z,69.50
2023-06-06T23:49:49.923Z,69.64
2023-06-06T23:52:36.288Z,69.83
2023-06-06T23:55:22.767Z,70.05
2023-06-06T23:58:09.798Z,70.26
